Time;durP1;ratioP1;P1;durP2;ratioP2;P2;SDS_P1;SDS_P2;PMS_P1;PMS_P2;Temp;Humidity;BMP_temperature;BMP_pressure;BME280_temperature;BME280_humidity;BME280_pressure;Samples;Min_cycle;Max_cycle;Signal;HPM_P1;HPM_P2
2023/10/28 00:00:02;;;;;;;7.50;2.03;;;11.90;27.60;;;;;;5013737;28;20427;-83
2023/10/28 00:06:31;;;;;;;5.30;1.83;;;11.90;24.10;;;;;;5009928;28;20394;-82
2023/10/28 00:09:01;;;;;;;3.93;1.63;;;11.90;22.60;;;;;;5012734;28;20424;-74
2023/10/28 00:11:43;;;;;;;3.03;1.73;;;11.90;25.20;;;;;;5015187;28;20558;-74
2023/10/28 00:14:25;;;;;;;2.80;1.50;;;12.50;25.40;;;;;;5014083;28;20882;-74
2023/10/28 00:16:55;;;;;;;8.10;1.60;;;11.90;22.30;;;;;;5014730;28;20947;-74
2023/10/28 00:19:21;;;;;;;4.20;2.30;;;11.90;23.50;;;;;;5013755;28;20467;-74
2023/10/28 00:22:01;;;;;;;15.50;2.20;;;11.90;21.10;;;;;;5011150;28;20759;-74
2023/10/28 00:24:37;;;;;;;3.80;1.93;;;11.90;23.00;;;;;;5004789;28;20511;-83
2023/10/28 00:33:46;;;;;;;4.97;2.30;;;11.80;23.50;;;;;;5010469;28;20481;-83
2023/10/28 00:50:04;;;;;;;4.03;1.70;;;11.80;28.90;;;;;;5014116;28;20397;-83
2023/10/28 00:52:31;;;;;;;4.50;1.40;;;11.70;32.60;;;;;;5014681;28;20423;-74
2023/10/28 00:55:37;;;;;;;3.43;1.50;;;11.80;30.50;;;;;;5013117;28;20421;-74
2023/10/28 00:58:13;;;;;;;3.20;1.50;;;11.80;27.30;;;;;;5013718;28;20942;-74
2023/10/28 01:00:56;;;;;;;1.60;1.50;;;11.80;29.70;;;;;;5014417;28;20402;-74
2023/10/28 01:03:22;;;;;;;1.90;1.40;;;11.80;28.70;;;;;;5013737;28;20423;-73
2023/10/28 01:05:50;;;;;;;1.80;1.30;;;11.80;31.20;;;;;;5013512;28;20493;-74
2023/10/28 01:11:39;;;;;;;4.20;1.10;;;11.80;23.90;;;;;;5019850;28;20425;-83
2023/10/28 01:14:20;;;;;;;8.30;1.37;;;11.80;27.40;;;;;;5008105;28;20523;-83
2023/10/28 01:16:49;;;;;;;2.57;1.40;;;11.80;28.10;;;;;;5011945;28;20482;-83
2023/10/28 01:19:49;;;;;;;1.60;1.23;;;11.80;25.50;;;;;;5011798;28;20464;-83
2023/10/28 01:22:21;;;;;;;3.70;1.20;;;11.80;29.20;;;;;;5013119;28;20423;-82
2023/10/28 01:24:49;;;;;;;2.70;1.40;;;11.80;28.40;;;;;;5012518;28;20806;-74
2023/10/28 01:27:15;;;;;;;5.33;1.90;;;11.80;27.00;;;;;;5012952;28;20461;-74
2023/10/28 01:29:41;;;;;;;2.43;1.90;;;11.70;31.70;;;;;;5009380;28;20400;-74
2023/10/28 01:32:14;;;;;;;2.43;1.30;;;11.60;39.50;;;;;;5012974;28;20474;-74
2023/10/28 01:34:51;;;;;;;2.10;1.40;;;11.70;40.20;;;;;;5013579;28;20767;-74
2023/10/28 01:37:31;;;;;;;1.53;1.30;;;11.80;40.30;;;;;;5013258;28;20427;-74
2023/10/28 01:46:41;;;;;;;1.77;1.43;;;11.80;31.40;;;;;;5013476;28;20410;-82
2023/10/28 01:52:29;;;;;;;1.67;1.40;;;11.80;30.80;;;;;;5008520;28;20392;-83
2023/10/28 01:54:55;;;;;;;5.70;1.40;;;11.80;32.70;;;;;;5014333;28;20428;-83
2023/10/28 01:57:43;;;;;;;2.50;1.27;;;11.90;30.30;;;;;;5012406;28;20207;-82
2023/10/28 02:00:12;;;;;;;1.30;1.20;;;11.80;30.60;;;;;;5014044;28;20402;-83
2023/10/28 02:16:05;;;;;;;3.43;1.00;;;11.80;43.70;;;;;;5017236;28;20463;-83
2023/10/28 02:21:54;;;;;;;3.67;1.00;;;11.70;35.60;;;;;;5005903;28;20208;-83
2023/10/28 02:24:43;;;;;;;0.80;0.80;;;11.70;25.00;;;;;;5011876;28;20383;-83
2023/10/28 02:30:31;;;;;;;3.30;0.80;;;11.70;22.60;;;;;;5016949;28;20826;-83
2023/10/28 02:33:31;;;;;;;1.43;1.20;;;11.70;24.60;;;;;;5016155;28;20435;-83
2023/10/28 02:36:19;;;;;;;1.33;1.23;;;11.60;15.50;;;;;;5016941;28;20506;-82
2023/10/28 02:38:55;;;;;;;1.10;1.00;;;11.60;17.90;;;;;;5010691;28;20460;-74
2023/10/28 02:41:21;;;;;;;0.70;0.70;;;11.60;15.10;;;;;;5016378;28;20934;-74
2023/10/28 02:44:07;;;;;;;0.97;0.97;;;11.60;13.50;;;;;;5016467;28;20489;-74
2023/10/28 02:46:33;;;;;;;5.50;0.80;;;11.60;9.90;;;;;;5016263;28;20173;-74
2023/10/28 02:48:59;;;;;;;0.60;0.60;;;11.60;2.00;;;;;;5015447;28;20419;-74
2023/10/28 02:51:24;;;;;;;1.70;1.00;;;11.50;1.70;;;;;;5016432;28;20173;-74
2023/10/28 02:53:50;;;;;;;7.10;1.07;;;11.60;1.00;;;;;;5016647;28;20427;-74
2023/10/28 02:56:16;;;;;;;0.90;0.90;;;11.70;1.00;;;;;;5012277;28;20723;-75
2023/10/28 02:58:43;;;;;;;1.13;0.90;;;11.60;1.80;;;;;;5013007;28;20220;-74
2023/10/28 03:01:13;;;;;;;0.77;0.77;;;11.60;2.40;;;;;;5016277;28;20659;-74
2023/10/28 03:03:41;;;;;;;2.90;0.93;;;11.60;1.30;;;;;;5013146;28;20764;-74
2023/10/28 03:06:08;;;;;;;1.53;0.80;;;11.60;1.20;;;;;;5012807;28;20503;-74
2023/10/28 03:08:55;;;;;;;0.80;0.80;;;11.50;6.20;;;;;;5009300;28;20419;-75
2023/10/28 03:11:38;;;;;;;0.60;0.60;;;11.60;2.40;;;;;;5015405;28;20925;-74
2023/10/28 03:14:19;;;;;;;3.07;0.70;;;11.60;4.80;;;;;;5014609;28;20954;-74
2023/10/28 03:16:46;;;;;;;0.80;0.80;;;11.50;3.70;;;;;;5015329;28;20512;-74
2023/10/28 03:19:11;;;;;;;0.70;0.70;;;11.40;4.30;;;;;;5015303;28;21038;-74
2023/10/28 03:21:38;;;;;;;1.00;0.60;;;11.30;4.80;;;;;;5012533;28;20523;-74
2023/10/28 03:24:08;;;;;;;1.10;0.70;;;11.20;4.80;;;;;;5015956;28;20407;-83
2023/10/28 03:30:32;;;;;;;0.80;0.80;;;11.20;3.30;;;;;;5011020;28;20436;-82
2023/10/28 03:39:55;;;;;;;0.87;0.80;;;10.90;1.00;;;;;;4996652;28;20455;-82
2023/10/28 03:42:21;;;;;;;12.23;0.80;;;11.00;2.40;;;;;;5015769;28;20881;-82
2023/10/28 03:45:14;;;;;;;2.10;0.70;;;10.90;1.00;;;;;;5009181;28;20460;-83
2023/10/28 03:51:03;;;;;;;5.40;0.70;;;11.00;1.00;;;;;;5015778;28;20371;-82
2023/10/28 03:54:13;;;;;;;2.10;0.80;;;11.00;1.00;;;;;;5014102;28;20421;-82
2023/10/28 04:00:00;;;;;;;2.20;0.57;;;11.10;1.00;;;;;;5014899;28;20451;-83
2023/10/28 04:02:44;;;;;;;0.73;0.73;;;11.20;1.00;;;;;;5014469;28;20422;-82
2023/10/28 04:09:03;;;;;;;3.70;0.70;;;11.20;1.00;;;;;;5014549;28;20462;-82
2023/10/28 04:14:50;;;;;;;1.30;0.70;;;11.30;1.00;;;;;;5014947;28;20391;-83
2023/10/28 04:21:01;;;;;;;2.60;1.07;;;11.30;1.00;;;;;;5014019;28;20253;-83
2023/10/28 04:26:50;;;;;;;1.20;0.90;;;11.40;1.00;;;;;;5006959;28;20720;-74
2023/10/28 04:29:16;;;;;;;1.80;0.83;;;11.40;1.00;;;;;;5014237;28;20430;-74
2023/10/28 04:31:41;;;;;;;0.80;0.80;;;11.50;1.00;;;;;;5011277;28;20430;-74
2023/10/28 04:34:07;;;;;;;10.17;1.00;;;11.50;1.00;;;;;;5013197;28;20749;-74
2023/10/28 04:36:38;;;;;;;1.80;0.87;;;11.60;1.00;;;;;;5014167;28;21428;-74
2023/10/28 04:39:23;;;;;;;1.37;1.00;;;11.50;1.00;;;;;;5012615;28;20631;-74
2023/10/28 04:41:52;;;;;;;1.47;0.90;;;11.60;1.00;;;;;;5013965;28;20438;-83
2023/10/28 04:51:19;;;;;;;1.33;1.00;;;11.70;1.00;;;;;;5014569;28;20411;-83
2023/10/28 05:00:29;;;;;;;3.00;1.00;;;11.80;1.00;;;;;;5007442;28;20513;-83
2023/10/28 05:10:09;;;;;;;4.87;1.10;;;11.80;1.00;;;;;;5014435;28;20756;-75
2023/10/28 05:15:56;;;;;;;1.87;1.00;;;11.70;1.00;;;;;;5006208;28;20439;-83
2023/10/28 05:25:07;;;;;;;1.67;0.80;;;11.50;1.00;;;;;;5014448;28;20387;-82
2023/10/28 05:28:07;;;;;;;1.03;0.73;;;11.50;1.00;;;;;;5014096;28;20424;-82
2023/10/28 05:40:39;;;;;;;9.13;1.10;;;11.50;1.00;;;;;;5016321;28;20949;-74
2023/10/28 05:43:13;;;;;;;10.67;1.00;;;11.50;1.00;;;;;;5016723;28;20427;-74
2023/10/28 05:45:44;;;;;;;3.13;1.27;;;11.50;1.00;;;;;;5008519;28;20183;-74
2023/10/28 05:48:09;;;;;;;5.13;0.90;;;11.60;1.00;;;;;;5016975;28;20408;-74
2023/10/28 05:50:35;;;;;;;2.20;0.97;;;11.50;1.00;;;;;;5016900;28;20438;-74
2023/10/28 05:53:01;;;;;;;1.00;0.83;;;11.40;2.10;;;;;;5015402;28;20177;-74
2023/10/28 05:55:31;;;;;;;4.60;0.90;;;11.50;1.00;;;;;;5017416;28;20659;-82
2023/10/28 05:58:02;;;;;;;5.33;1.10;;;11.50;1.70;;;;;;5017382;28;20197;-83
2023/10/28 06:03:56;;;;;;;6.00;1.30;;;;;;;;;;5014573;28;20470;-83
2023/10/28 06:07:13;;;;;;;3.30;0.80;;;11.50;1.00;;;;;;5017055;28;20431;-82
2023/10/28 06:10:14;;;;;;;6.10;1.40;;;11.50;1.00;;;;;;5017524;28;20461;-82
2023/10/28 06:12:50;;;;;;;3.53;1.40;;;11.50;1.00;;;;;;5017588;28;20474;-81
2023/10/28 06:15:15;;;;;;;1.03;0.90;;;11.60;1.00;;;;;;5013963;28;20763;-82
2023/10/28 06:17:41;;;;;;;3.03;1.50;;;11.60;1.00;;;;;;5016277;28;20522;-83
2023/10/28 06:23:28;;;;;;;5.30;1.40;;;11.60;3.20;;;;;;5015313;28;20624;-81
2023/10/28 06:29:32;;;;;;;3.23;1.13;;;11.50;2.70;;;;;;5005420;28;20273;-81
2023/10/28 06:32:00;;;;;;;1.93;1.13;;;11.50;5.30;;;;;;5016863;28;20559;-82
2023/10/28 06:34:49;;;;;;;513.40;76.95;;;11.60;4.70;;;;;;5014831;28;20432;-82
2023/10/28 06:44:25;;;;;;;7.60;1.10;;;11.70;1.00;;;;;;5015120;28;20825;-82
2023/10/28 06:47:25;;;;;;;4.73;1.47;;;11.80;1.00;;;;;;5015921;28;20422;-82
2023/10/28 06:50:17;;;;;;;5.33;1.33;;;11.70;1.00;;;;;;5031758;28;20481;-82
2023/10/28 06:53:01;;;;;;;8.73;1.63;;;11.70;1.00;;;;;;5008768;28;20435;-81
2023/10/28 07:02:32;;;;;;;7.17;1.80;;;11.70;1.00;;;;;;5014325;28;20388;-81
2023/10/28 07:05:08;;;;;;;4.83;1.40;;;11.70;1.70;;;;;;5000694;28;20435;-81
2023/10/28 07:14:20;;;;;;;3.73;1.47;;;11.80;1.00;;;;;;5013743;28;20462;-82
2023/10/28 07:16:56;;;;;;;7.30;1.30;;;11.80;1.00;;;;;;5003751;28;20513;-82
2023/10/28 07:22:43;;;;;;;6.63;1.23;;;11.90;1.00;;;;;;5025791;28;20506;-82
2023/10/28 07:25:38;;;;;;;5.33;1.27;;;11.90;1.00;;;;;;5013056;28;20530;-81
2023/10/28 07:31:26;;;;;;;6.00;1.33;;;12.00;1.00;;;;;;5016652;28;20398;-82
2023/10/28 07:33:57;;;;;;;6.10;1.27;;;12.10;1.00;;;;;;5011564;28;20445;-81
2023/10/28 07:36:22;;;;;;;2.00;1.30;;;12.10;1.00;;;;;;5012992;28;20415;-81
2023/10/28 07:39:09;;;;;;;3.30;1.50;;;12.00;1.00;;;;;;5013166;28;20441;-82
2023/10/28 07:41:38;;;;;;;1.87;1.30;;;12.00;1.00;;;;;;5012271;28;20417;-81
2023/10/28 07:47:49;;;;;;;5.80;1.10;;;12.10;1.00;;;;;;5015615;28;20471;-81
2023/10/28 08:00:38;;;;;;;2.70;1.13;;;12.20;1.00;;;;;;5008159;28;20509;-81
2023/10/28 08:03:04;;;;;;;6.53;1.30;;;12.20;1.00;;;;;;5011815;28;20460;-73
2023/10/28 08:05:30;;;;;;;2.23;1.07;;;;;;;;;;5011929;28;20482;-73
2023/10/28 08:07:59;;;;;;;3.70;1.47;;;12.30;1.00;;;;;;5013755;28;20434;-73
2023/10/28 08:10:25;;;;;;;4.20;1.10;;;12.30;1.00;;;;;;5026329;28;20448;-73
2023/10/28 08:12:52;;;;;;;6.83;1.30;;;12.30;1.00;;;;;;5013612;28;20455;-73
2023/10/28 08:15:21;;;;;;;10.07;1.27;;;12.10;1.00;;;;;;5014836;28;20436;-73
2023/10/28 08:17:51;;;;;;;4.70;1.80;;;12.10;1.00;;;;;;5014566;28;20447;-73
2023/10/28 08:20:20;;;;;;;4.20;1.20;;;12.10;1.00;;;;;;5014014;28;20454;-73
2023/10/28 08:22:50;;;;;;;6.20;1.13;;;12.20;1.00;;;;;;5010455;28;20927;-73
2023/10/28 08:25:22;;;;;;;5.30;1.23;;;12.40;1.00;;;;;;5012064;28;20885;-73
2023/10/28 08:27:48;;;;;;;4.60;0.90;;;;;;;;;;5017865;28;20427;-73
2023/10/28 08:30:17;;;;;;;2.63;0.90;;;12.60;1.00;;;;;;5008678;28;22299;-74
2023/10/28 08:33:22;;;;;;;6.00;1.90;;;12.80;1.00;;;;;;5012482;28;20836;-82
2023/10/28 08:42:34;;;;;;;4.73;1.17;;;12.90;1.00;;;;;;5019979;28;20402;-82
2023/10/28 08:45:49;;;;;;;4.37;1.20;;;13.00;1.00;;;;;;5004022;28;20425;-82
2023/10/28 08:59:07;;;;;;;6.63;0.97;;;12.90;1.00;;;;;;5025534;28;20465;-82
2023/10/28 09:02:07;;;;;;;2.27;1.00;;;12.90;1.00;;;;;;5024333;28;20469;-82
2023/10/28 09:04:38;;;;;;;1.97;1.03;;;12.90;1.00;;;;;;5021163;28;20477;-73
2023/10/28 09:07:31;;;;;;;11.50;1.40;;;13.00;1.00;;;;;;5019907;28;20381;-74
2023/10/28 09:09:58;;;;;;;4.20;1.20;;;13.10;1.00;;;;;;5022520;28;20416;-74
2023/10/28 09:12:24;;;;;;;8.73;2.03;;;13.20;1.00;;;;;;5010891;28;20965;-74
2023/10/28 09:14:50;;;;;;;1.13;0.77;;;13.30;1.00;;;;;;5012472;28;20410;-74
2023/10/28 09:24:43;;;;;;;12.50;1.20;;;13.70;1.00;;;;;;5012658;28;20450;-79
2023/10/28 09:27:38;;;;;;;2.07;1.10;;;14.00;1.00;;;;;;5012101;28;20798;-78
2023/10/28 09:30:10;;;;;;;5.57;1.67;;;14.00;1.00;;;;;;5014775;28;20466;-79
2023/10/28 09:32:38;;;;;;;2.10;1.00;;;14.00;1.00;;;;;;5019352;28;20428;-74
2023/10/28 09:35:11;;;;;;;2.90;1.50;;;14.10;1.00;;;;;;5011736;28;21595;-80
2023/10/28 09:37:39;;;;;;;3.00;1.03;;;14.10;1.00;;;;;;5013462;28;20397;-73
2023/10/28 09:40:13;;;;;;;2.70;0.90;;;14.10;1.00;;;;;;5012415;28;20539;-73
2023/10/28 09:42:39;;;;;;;3.87;1.10;;;14.00;1.00;;;;;;5012986;28;20489;-73
2023/10/28 09:45:08;;;;;;;5.10;0.97;;;13.90;1.00;;;;;;5012979;28;20437;-73
2023/10/28 09:47:57;;;;;;;5.57;1.53;;;13.90;1.00;;;;;;5014065;28;20392;-73
2023/10/28 09:50:27;;;;;;;4.00;1.20;;;14.30;1.00;;;;;;5010618;28;20907;-73
2023/10/28 09:52:57;;;;;;;4.07;1.10;;;14.40;1.00;;;;;;5013072;28;20489;-73
2023/10/28 09:55:30;;;;;;;5.13;1.00;;;14.70;1.00;;;;;;5006311;28;20406;-73
2023/10/28 09:58:07;;;;;;;4.83;1.70;;;14.70;1.00;;;;;;5009568;28;20766;-73
2023/10/28 10:00:37;;;;;;;4.17;1.10;;;14.80;1.00;;;;;;5013191;28;20424;-73
2023/10/28 10:03:37;;;;;;;6.33;1.17;;;15.00;1.00;;;;;;5012450;28;20503;-73
2023/10/28 10:06:04;;;;;;;8.00;0.97;;;15.00;1.00;;;;;;5012966;28;20418;-73
2023/10/28 10:08:33;;;;;;;4.20;1.40;;;15.00;1.00;;;;;;5012789;28;20418;-73
2023/10/28 10:10:59;;;;;;;1.27;0.97;;;15.10;1.00;;;;;;5013326;28;20405;-73
2023/10/28 10:13:25;;;;;;;4.43;1.00;;;15.20;1.00;;;;;;5012805;28;20419;-73
2023/10/28 10:15:58;;;;;;;1.87;1.00;;;15.20;1.00;;;;;;5013714;28;20463;-73
2023/10/28 10:18:49;;;;;;;2.23;1.10;;;15.30;1.00;;;;;;5013643;28;20231;-75
2023/10/28 10:21:18;;;;;;;2.90;1.40;;;15.10;1.00;;;;;;5000758;28;20552;-73
2023/10/28 10:23:50;;;;;;;4.43;1.30;;;15.10;1.00;;;;;;5005988;28;20443;-73
2023/10/28 10:26:29;;;;;;;6.20;1.30;;;15.20;1.00;;;;;;5010283;28;20743;-73
2023/10/28 10:28:59;;;;;;;3.60;1.00;;;15.30;1.00;;;;;;5008767;28;20428;-73
2023/10/28 10:31:34;;;;;;;4.67;1.20;;;15.40;1.00;;;;;;5016782;28;20439;-73
2023/10/28 10:34:07;;;;;;;3.27;0.80;;;15.30;1.00;;;;;;5006904;28;20486;-77
2023/10/28 10:36:43;;;;;;;5.83;1.30;;;15.00;1.00;;;;;;5021543;28;20969;-77
2023/10/28 10:39:18;;;;;;;5.00;1.00;;;15.00;1.00;;;;;;5016765;28;20411;-77
2023/10/28 10:41:54;;;;;;;13.13;1.63;;;15.10;1.00;;;;;;5016621;28;20379;-77
2023/10/28 10:44:25;;;;;;;9.20;1.20;;;15.20;1.00;;;;;;5017001;28;20402;-77
2023/10/28 10:47:37;;;;;;;9.23;1.30;;;15.50;1.00;;;;;;5009421;28;20515;-77
2023/10/28 10:50:05;;;;;;;9.47;2.53;;;15.30;1.00;;;;;;5009883;28;20435;-73
2023/10/28 10:52:34;;;;;;;3.50;1.40;;;15.40;1.00;;;;;;4982652;28;20445;-73
2023/10/28 10:55:04;;;;;;;4.13;1.17;;;15.40;1.00;;;;;;5011564;28;20410;-73
2023/10/28 10:57:30;;;;;;;9.33;1.20;;;15.60;1.00;;;;;;5014065;28;20431;-73
2023/10/28 10:59:58;;;;;;;6.10;1.30;;;15.60;1.00;;;;;;5014171;28;20436;-73
2023/10/28 11:02:25;;;;;;;6.70;1.23;;;15.70;1.00;;;;;;5015843;28;20415;-73
2023/10/28 11:05:02;;;;;;;6.53;1.33;;;15.80;1.00;;;;;;5016307;28;20391;-76
2023/10/28 11:07:50;;;;;;;1.90;0.90;;;15.80;1.00;;;;;;5014120;28;20418;-75
2023/10/28 11:10:49;;;;;;;6.80;1.20;;;15.80;1.00;;;;;;5015781;28;20421;-76
2023/10/28 11:13:20;;;;;;;7.33;1.40;;;15.60;1.00;;;;;;5015688;28;20416;-75
2023/10/28 11:15:47;;;;;;;4.20;1.17;;;15.50;1.00;;;;;;5014928;28;20424;-78
2023/10/28 11:18:43;;;;;;;7.87;1.90;;;15.80;1.00;;;;;;5017334;28;20457;-76
2023/10/28 11:21:32;;;;;;;2.83;1.00;;;15.70;1.00;;;;;;5006656;28;20964;-77
2023/10/28 11:23:58;;;;;;;9.83;1.53;;;15.90;1.00;;;;;;5011850;28;20481;-80
2023/10/28 11:26:38;;;;;;;4.57;1.53;;;15.90;1.00;;;;;;5019914;28;20898;-79
2023/10/28 11:29:17;;;;;;;1.87;1.00;;;15.90;1.00;;;;;;5021795;28;20418;-77
2023/10/28 11:32:37;;;;;;;3.57;1.37;;;15.80;1.00;;;;;;5021515;28;20515;-76
2023/10/28 11:35:11;;;;;;;4.33;1.37;;;15.80;1.00;;;;;;5002331;28;20746;-80
2023/10/28 11:37:39;;;;;;;8.73;1.30;;;15.60;1.00;;;;;;5000074;28;20437;-73
2023/10/28 11:40:06;;;;;;;9.77;1.73;;;15.60;1.00;;;;;;5016152;28;20451;-73
2023/10/28 11:42:37;;;;;;;7.90;1.57;;;15.90;1.00;;;;;;5012949;28;20433;-74
2023/10/28 11:45:07;;;;;;;17.57;1.90;;;15.80;1.00;;;;;;5017762;28;20506;-74
2023/10/28 11:47:40;;;;;;;3.83;1.13;;;16.00;1.00;;;;;;5012723;28;20448;-74
2023/10/28 11:50:09;;;;;;;5.60;1.27;;;16.10;1.00;;;;;;5015675;28;20451;-74
2023/10/28 11:52:38;;;;;;;5.40;0.90;;;16.10;1.00;;;;;;5021051;28;20401;-74
2023/10/28 11:55:08;;;;;;;1.77;0.80;;;16.10;1.00;;;;;;5011642;28;20424;-74
2023/10/28 11:57:33;;;;;;;5.70;1.23;;;16.00;1.00;;;;;;5014367;28;20434;-74
2023/10/28 11:59:59;;;;;;;3.13;1.27;;;15.90;1.00;;;;;;5014377;28;20767;-73
2023/10/28 12:02:25;;;;;;;12.93;1.40;;;15.80;1.00;;;;;;5003394;28;20197;-73
2023/10/28 12:04:56;;;;;;;5.20;1.00;;;15.60;1.00;;;;;;5018275;28;20453;-73
2023/10/28 12:07:22;;;;;;;5.37;1.10;;;15.50;1.00;;;;;;5011527;28;20664;-73
2023/10/28 12:09:50;;;;;;;6.93;1.20;;;15.40;1.00;;;;;;5016500;28;20487;-74
2023/10/28 12:12:20;;;;;;;7.93;1.13;;;15.40;1.00;;;;;;5014894;28;20181;-74
2023/10/28 12:14:46;;;;;;;7.23;1.20;;;15.30;1.00;;;;;;5009206;28;20749;-74
2023/10/28 12:17:12;;;;;;;7.30;1.20;;;15.40;1.00;;;;;;5021429;28;20572;-73
2023/10/28 12:19:39;;;;;;;4.40;1.30;;;15.30;1.00;;;;;;5011525;28;20213;-73
2023/10/28 12:22:09;;;;;;;6.37;1.30;;;15.30;1.00;;;;;;5011920;28;20399;-74
2023/10/28 12:24:51;;;;;;;5.00;1.40;;;15.30;1.00;;;;;;4999396;28;20555;-73
2023/10/28 12:27:17;;;;;;;5.30;1.23;;;15.30;1.00;;;;;;5014493;28;20509;-73
2023/10/28 12:29:45;;;;;;;5.10;1.50;;;15.40;1.00;;;;;;5008278;28;21019;-73
2023/10/28 12:32:10;;;;;;;6.83;1.27;;;15.40;1.00;;;;;;5019882;28;20173;-73
2023/10/28 12:34:38;;;;;;;2.63;1.00;;;15.40;1.00;;;;;;5017782;28;20416;-73
2023/10/28 12:37:08;;;;;;;3.27;1.37;;;15.30;1.00;;;;;;5016312;28;20600;-74
2023/10/28 12:39:35;;;;;;;4.90;1.57;;;15.20;1.00;;;;;;5013661;28;20435;-74
2023/10/28 12:42:08;;;;;;;2.77;1.60;;;15.00;1.00;;;;;;5022819;28;20478;-74
2023/10/28 12:44:33;;;;;;;9.57;1.70;;;15.00;1.00;;;;;;5021657;28;20827;-74
2023/10/28 12:47:02;;;;;;;9.90;1.80;;;15.00;1.00;;;;;;5012467;28;20453;-74
2023/10/28 12:49:32;;;;;;;11.13;1.37;;;15.10;1.00;;;;;;5020504;28;20181;-74
2023/10/28 12:52:02;;;;;;;7.10;1.23;;;;;;;;;;5013460;28;20933;-74
2023/10/28 12:54:38;;;;;;;5.30;1.50;;;14.90;1.00;;;;;;5012740;28;20786;-80
2023/10/28 12:57:05;;;;;;;4.07;1.20;;;14.80;1.00;;;;;;5009317;28;20931;-80
2023/10/28 12:59:32;;;;;;;6.03;1.37;;;14.80;1.00;;;;;;4993080;28;20461;-81
2023/10/28 13:02:04;;;;;;;11.57;1.70;;;14.70;1.00;;;;;;5006902;28;20949;-79
2023/10/28 13:04:38;;;;;;;8.43;1.67;;;14.60;1.00;;;;;;5015782;28;20398;-80
2023/10/28 13:07:37;;;;;;;8.00;1.50;;;14.60;1.00;;;;;;5013007;28;20402;-80
2023/10/28 13:10:03;;;;;;;4.57;1.13;;;14.60;1.00;;;;;;5023108;28;20431;-74
2023/10/28 13:12:38;;;;;;;9.10;1.83;;;14.60;1.00;;;;;;5025271;28;20423;-74
2023/10/28 13:15:04;;;;;;;4.50;1.37;;;14.60;1.00;;;;;;5021005;28;20442;-74
2023/10/28 13:17:30;;;;;;;4.20;1.30;;;14.30;1.00;;;;;;5016858;28;20455;-74
2023/10/28 13:20:04;;;;;;;8.80;1.50;;;14.30;1.00;;;;;;5014668;28;20446;-74
2023/10/28 13:22:32;;;;;;;6.90;1.63;;;14.30;1.00;;;;;;5012283;28;20180;-74
2023/10/28 13:24:58;;;;;;;8.93;2.13;;;;;;;;;;5007707;28;20489;-73
2023/10/28 13:27:24;;;;;;;10.67;1.57;;;14.20;1.00;;;;;;5021072;28;20424;-74
2023/10/28 13:29:49;;;;;;;10.87;1.60;;;14.10;1.00;;;;;;5015840;28;20447;-73
2023/10/28 13:32:15;;;;;;;11.73;1.97;;;13.80;1.00;;;;;;5012196;28;20196;-74
2023/10/28 13:34:41;;;;;;;8.10;1.97;;;13.80;1.00;;;;;;5021208;28;20189;-74
2023/10/28 13:37:08;;;;;;;4.77;1.77;;;13.60;1.00;;;;;;5016374;28;20188;-74
2023/10/28 13:39:33;;;;;;;14.53;3.13;;;13.70;1.00;;;;;;5015328;28;20687;-80
2023/10/28 13:42:08;;;;;;;6.53;1.70;;;13.60;1.00;;;;;;5024217;28;20389;-81
2023/10/28 13:44:38;;;;;;;14.70;2.10;;;13.60;1.00;;;;;;5022846;28;20186;-81
2023/10/28 13:47:20;;;;;;;9.90;1.90;;;13.60;1.00;;;;;;5025816;28;20931;-81
2023/10/28 13:50:04;;;;;;;13.93;2.00;;;13.70;1.00;;;;;;5005384;28;20908;-80
2023/10/28 13:52:39;;;;;;;13.90;2.57;;;13.70;1.00;;;;;;5020957;28;20960;-79
2023/10/28 13:55:08;;;;;;;5.50;1.50;;;13.70;1.00;;;;;;5017839;28;20574;-75
2023/10/28 13:57:34;;;;;;;15.00;2.03;;;13.70;1.00;;;;;;5010518;28;20891;-75
2023/10/28 14:00:06;;;;;;;3.07;1.30;;;13.60;1.00;;;;;;5002604;28;20477;-74
2023/10/28 14:02:32;;;;;;;4.07;1.83;;;13.60;1.00;;;;;;5021575;28;20176;-74
2023/10/28 14:04:59;;;;;;;6.37;1.80;;;13.70;1.00;;;;;;5018366;28;20581;-75
2023/10/28 14:07:26;;;;;;;4.60;1.40;;;13.70;1.00;;;;;;5015674;28;20180;-75
2023/10/28 14:09:56;;;;;;;11.00;2.50;;;13.70;1.00;;;;;;5015108;28;20443;-73
2023/10/28 14:12:23;;;;;;;5.83;1.73;;;13.70;1.00;;;;;;5019108;28;20440;-73
2023/10/28 14:14:49;;;;;;;9.73;2.40;;;13.70;1.00;;;;;;5022313;28;20443;-72
2023/10/28 14:17:15;;;;;;;6.10;1.73;;;13.70;1.00;;;;;;5019981;28;20943;-73
2023/10/28 14:19:41;;;;;;;7.90;1.57;;;13.70;1.00;;;;;;5027418;28;20197;-72
2023/10/28 14:22:09;;;;;;;9.60;1.50;;;13.70;1.00;;;;;;5015883;28;20414;-73
2023/10/28 14:24:35;;;;;;;3.90;1.47;;;13.80;1.00;;;;;;5011638;28;20571;-73
2023/10/28 14:27:08;;;;;;;4.57;1.27;;;13.90;1.00;;;;;;5018420;28;20430;-78
2023/10/28 14:29:38;;;;;;;6.00;1.67;;;13.80;1.00;;;;;;5021629;28;20542;-78
2023/10/28 14:32:04;;;;;;;7.53;2.07;;;13.80;1.00;;;;;;5032699;28;20423;-78
2023/10/28 14:34:32;;;;;;;11.20;1.43;;;13.80;1.00;;;;;;5026362;28;20406;-78
2023/10/28 14:37:08;;;;;;;2.70;1.00;;;13.80;1.00;;;;;;5019017;28;20431;-77
2023/10/28 14:39:38;;;;;;;5.23;1.57;;;13.90;1.00;;;;;;5021424;28;20462;-77
2023/10/28 14:42:08;;;;;;;6.20;1.70;;;13.80;1.00;;;;;;5035344;28;20406;-78
2023/10/28 14:44:42;;;;;;;3.33;1.40;;;13.80;1.00;;;;;;5013026;28;20477;-77
2023/10/28 14:47:08;;;;;;;5.73;1.30;;;13.90;1.00;;;;;;5026775;28;20427;-77
2023/10/28 14:49:38;;;;;;;7.07;1.30;;;13.70;1.00;;;;;;5016399;28;20437;-80
2023/10/28 14:52:04;;;;;;;2.30;1.07;;;13.70;1.00;;;;;;5018439;28;20407;-80
2023/10/28 14:54:32;;;;;;;4.93;1.63;;;13.70;1.00;;;;;;5025851;28;20435;-80
2023/10/28 14:56:58;;;;;;;6.23;1.03;;;13.60;1.00;;;;;;5018164;28;20766;-73
2023/10/28 14:59:23;;;;;;;13.00;1.47;;;13.80;1.00;;;;;;5026482;28;20436;-74
2023/10/28 15:01:49;;;;;;;3.70;1.33;;;13.80;1.00;;;;;;5013949;28;20212;-73
2023/10/28 15:04:15;;;;;;;4.77;1.37;;;13.60;1.00;;;;;;5016331;28;20532;-72
2023/10/28 15:06:41;;;;;;;4.83;1.30;;;13.60;1.00;;;;;;4996906;28;20174;-74
2023/10/28 15:09:08;;;;;;;4.47;1.07;;;13.60;1.00;;;;;;5009196;28;21005;-75
2023/10/28 15:11:38;;;;;;;4.90;1.33;;;13.50;1.00;;;;;;5009336;28;20189;-74
2023/10/28 15:14:05;;;;;;;4.23;1.60;;;13.40;1.00;;;;;;5023096;28;20429;-79
2023/10/28 15:16:38;;;;;;;1.80;1.40;;;13.50;1.00;;;;;;5018740;28;20447;-80
2023/10/28 15:19:09;;;;;;;5.17;1.27;;;13.20;1.00;;;;;;5051038;28;20537;-80
2023/10/28 15:21:38;;;;;;;2.07;1.43;;;13.20;1.00;;;;;;5007082;28;20440;-79
2023/10/28 15:24:08;;;;;;;2.80;1.13;;;13.10;1.00;;;;;;5012248;28;20786;-81
2023/10/28 15:26:39;;;;;;;7.90;1.27;;;13.10;1.00;;;;;;5013269;28;20482;-81
2023/10/28 15:29:05;;;;;;;8.87;1.20;;;13.00;1.00;;;;;;5015445;28;20478;-74
2023/10/28 15:31:31;;;;;;;10.60;1.67;;;13.10;1.00;;;;;;5016783;28;20856;-73
2023/10/28 15:34:02;;;;;;;3.80;1.33;;;12.90;1.00;;;;;;5015858;28;20181;-72
2023/10/28 15:36:28;;;;;;;4.47;1.30;;;12.80;1.00;;;;;;5014801;28;20183;-72
2023/10/28 15:38:54;;;;;;;6.40;1.97;;;12.80;1.00;;;;;;5010699;28;20456;-75
2023/10/28 15:41:20;;;;;;;6.80;1.50;;;12.90;1.00;;;;;;5013624;28;20691;-75
2023/10/28 15:43:46;;;;;;;8.50;1.10;;;12.90;1.00;;;;;;5015201;28;20428;-77
2023/10/28 15:49:38;;;;;;;1.97;1.30;;;12.80;1.00;;;;;;5022477;28;20605;-77
2023/10/28 15:52:04;;;;;;;4.33;1.30;;;12.80;1.00;;;;;;5031328;28;20427;-76
2023/10/28 15:54:38;;;;;;;3.57;1.33;;;12.80;1.00;;;;;;5012547;28;20439;-75
2023/10/28 15:57:08;;;;;;;5.87;1.30;;;12.70;1.00;;;;;;5012833;28;20555;-76
2023/10/28 15:59:34;;;;;;;6.77;1.23;;;12.70;1.00;;;;;;5013303;28;21045;-77
2023/10/28 16:02:09;;;;;;;3.13;1.50;;;12.70;1.00;;;;;;5018403;28;20432;-76
2023/10/28 16:05:09;;;;;;;8.07;1.73;;;12.80;1.00;;;;;;5015168;28;20955;-76
2023/10/28 16:07:38;;;;;;;6.37;1.60;;;12.80;1.00;;;;;;5014456;28;20515;-79
2023/10/28 16:10:08;;;;;;;4.67;1.63;;;12.90;1.00;;;;;;5023038;28;21005;-74
2023/10/28 16:12:34;;;;;;;5.60;1.50;;;12.80;1.00;;;;;;5012539;28;20960;-73
2023/10/28 16:15:01;;;;;;;10.97;1.90;;;12.80;1.00;;;;;;5016292;28;20471;-76
2023/10/28 16:17:32;;;;;;;4.77;2.00;;;12.70;1.00;;;;;;5015958;28;20251;-74
2023/10/28 16:19:58;;;;;;;3.40;1.30;;;12.70;1.00;;;;;;5015594;28;20463;-73
2023/10/28 16:22:24;;;;;;;3.43;1.70;;;12.70;1.00;;;;;;5006981;28;20443;-74
2023/10/28 16:24:50;;;;;;;12.43;1.90;;;12.70;1.00;;;;;;5022846;28;20427;-73
2023/10/28 16:27:15;;;;;;;3.23;1.40;;;12.60;1.00;;;;;;5022328;28;20190;-73
2023/10/28 16:29:42;;;;;;;3.40;1.63;;;12.70;1.00;;;;;;5017327;28;20531;-73
2023/10/28 16:32:09;;;;;;;3.93;1.60;;;12.70;1.00;;;;;;5015019;28;20184;-73
2023/10/28 16:34:34;;;;;;;4.57;1.60;;;12.70;1.00;;;;;;5014555;28;20447;-73
2023/10/28 16:37:00;;;;;;;6.13;1.70;;;12.70;1.00;;;;;;5013433;28;20402;-73
2023/10/28 16:39:26;;;;;;;7.13;1.60;;;12.70;1.00;;;;;;5026651;28;20253;-73
2023/10/28 16:41:52;;;;;;;5.57;1.60;;;12.70;1.00;;;;;;5020241;28;20180;-74
2023/10/28 16:44:18;;;;;;;6.30;2.00;;;12.70;1.00;;;;;;5025428;28;20187;-74
2023/10/28 16:46:46;;;;;;;2.80;1.27;;;12.70;1.00;;;;;;5013360;28;20265;-74
2023/10/28 16:49:14;;;;;;;8.23;1.53;;;12.80;1.00;;;;;;5013572;28;20438;-74
2023/10/28 16:51:40;;;;;;;4.60;1.60;;;12.80;1.00;;;;;;5020296;28;20418;-74